sensor_id;sensor_type;location;lat;lon;timestamp;P1;durP1;ratioP1;P2;durP2;ratioP2
62030;SDS011;62035;52.094;5.112;2022-11-20T00:01:13;18.65;;;9.30;;
62030;SDS011;62035;52.094;5.112;2022-11-20T00:03:43;18.33;;;8.88;;
62030;SDS011;62035;52.094;5.112;2022-11-20T00:06:13;17.42;;;8.77;;
62030;SDS011;62035;52.094;5.112;2022-11-20T00:08:43;21.65;;;9.95;;
62030;SDS011;62035;52.094;5.112;2022-11-20T00:11:12;18.63;;;8.70;;
62030;SDS011;62035;52.094;5.112;2022-11-20T00:13:43;19.45;;;8.90;;
62030;SDS011;62035;52.094;5.112;2022-11-20T00:16:11;16.13;;;8.32;;
62030;SDS011;62035;52.094;5.112;2022-11-20T00:18:41;18.63;;;9.18;;
62030;SDS011;62035;52.094;5.112;2022-11-20T00:21:11;16.50;;;8.45;;
62030;SDS011;62035;52.094;5.112;2022-11-20T00:23:41;16.92;;;8.88;;
62030;SDS011;62035;52.094;5.112;2022-11-20T00:26:10;20.38;;;9.00;;
62030;SDS011;62035;52.094;5.112;2022-11-20T00:28:40;18.55;;;9.05;;
62030;SDS011;62035;52.094;5.112;2022-11-20T00:31:10;19.15;;;9.52;;
62030;SDS011;62035;52.094;5.112;2022-11-20T00:33:40;20.50;;;8.73;;
62030;SDS011;62035;52.094;5.112;2022-11-20T00:36:09;20.98;;;9.55;;
62030;SDS011;62035;52.094;5.112;2022-11-20T00:38:40;20.60;;;9.45;;
62030;SDS011;62035;52.094;5.112;2022-11-20T00:41:08;18.33;;;10.25;;
62030;SDS011;62035;52.094;5.112;2022-11-20T00:43:39;17.50;;;9.60;;
62030;SDS011;62035;52.094;5.112;2022-11-20T00:46:08;17.58;;;9.43;;
62030;SDS011;62035;52.094;5.112;2022-11-20T00:48:40;19.35;;;9.48;;
62030;SDS011;62035;52.094;5.112;2022-11-20T00:51:11;15.55;;;8.98;;
62030;SDS011;62035;52.094;5.112;2022-11-20T00:53:42;19.92;;;9.32;;
62030;SDS011;62035;52.094;5.112;2022-11-20T00:56:12;20.92;;;9.05;;
62030;SDS011;62035;52.094;5.112;2022-11-20T00:58:42;17.10;;;8.38;;
62030;SDS011;62035;52.094;5.112;2022-11-20T01:01:14;16.42;;;8.90;;
62030;SDS011;62035;52.094;5.112;2022-11-20T01:03:43;18.17;;;8.60;;
62030;SDS011;62035;52.094;5.112;2022-11-20T01:06:16;17.83;;;8.70;;
62030;SDS011;62035;52.094;5.112;2022-11-20T01:08:46;19.02;;;8.73;;
62030;SDS011;62035;52.094;5.112;2022-11-20T01:11:16;20.00;;;9.52;;
62030;SDS011;62035;52.094;5.112;2022-11-20T01:13:46;17.08;;;9.65;;
62030;SDS011;62035;52.094;5.112;2022-11-20T01:16:17;16.67;;;8.77;;
62030;SDS011;62035;52.094;5.112;2022-11-20T01:18:48;15.10;;;8.75;;
62030;SDS011;62035;52.094;5.112;2022-11-20T01:21:19;16.58;;;8.70;;
62030;SDS011;62035;52.094;5.112;2022-11-20T01:23:52;16.45;;;8.55;;
62030;SDS011;62035;52.094;5.112;2022-11-20T01:26:21;17.00;;;9.00;;
62030;SDS011;62035;52.094;5.112;2022-11-20T01:28:51;14.35;;;8.48;;
62030;SDS011;62035;52.094;5.112;2022-11-20T01:31:20;16.42;;;9.00;;
62030;SDS011;62035;52.094;5.112;2022-11-20T01:33:50;15.10;;;8.13;;
62030;SDS011;62035;52.094;5.112;2022-11-20T01:36:23;22.92;;;8.35;;
62030;SDS011;62035;52.094;5.112;2022-11-20T01:41:22;15.98;;;8.18;;
62030;SDS011;62035;52.094;5.112;2022-11-20T01:44:13;16.60;;;8.52;;
62030;SDS011;62035;52.094;5.112;2022-11-20T01:46:45;16.35;;;8.88;;
62030;SDS011;62035;52.094;5.112;2022-11-20T01:49:25;15.13;;;7.90;;
62030;SDS011;62035;52.094;5.112;2022-11-20T01:52:03;16.65;;;8.27;;
62030;SDS011;62035;52.094;5.112;2022-11-20T01:54:40;16.38;;;8.45;;
62030;SDS011;62035;52.094;5.112;2022-11-20T01:57:14;15.07;;;8.52;;
62030;SDS011;62035;52.094;5.112;2022-11-20T01:59:47;14.63;;;8.60;;
62030;SDS011;62035;52.094;5.112;2022-11-20T02:02:26;19.23;;;8.35;;
62030;SDS011;62035;52.094;5.112;2022-11-20T02:04:55;17.50;;;8.85;;
62030;SDS011;62035;52.094;5.112;2022-11-20T02:07:37;17.83;;;9.23;;
62030;SDS011;62035;52.094;5.112;2022-11-20T02:10:06;14.40;;;8.82;;
62030;SDS011;62035;52.094;5.112;2022-11-20T02:12:34;16.75;;;8.52;;
62030;SDS011;62035;52.094;5.112;2022-11-20T02:15:19;16.98;;;9.05;;
62030;SDS011;62035;52.094;5.112;2022-11-20T02:17:47;19.20;;;9.55;;
62030;SDS011;62035;52.094;5.112;2022-11-20T02:20:15;15.93;;;8.27;;
62030;SDS011;62035;52.094;5.112;2022-11-20T02:22:46;19.85;;;8.73;;
62030;SDS011;62035;52.094;5.112;2022-11-20T02:25:25;18.27;;;9.07;;
62030;SDS011;62035;52.094;5.112;2022-11-20T02:27:56;13.73;;;7.68;;
62030;SDS011;62035;52.094;5.112;2022-11-20T02:30:24;17.55;;;7.68;;
62030;SDS011;62035;52.094;5.112;2022-11-20T02:32:52;16.60;;;7.75;;
62030;SDS011;62035;52.094;5.112;2022-11-20T02:35:39;16.00;;;8.20;;
62030;SDS011;62035;52.094;5.112;2022-11-20T02:38:11;15.63;;;7.90;;
62030;SDS011;62035;52.094;5.112;2022-11-20T02:40:42;14.70;;;8.07;;
62030;SDS011;62035;52.094;5.112;2022-11-20T02:43:10;13.45;;;7.78;;
62030;SDS011;62035;52.094;5.112;2022-11-20T02:45:38;15.60;;;8.55;;
62030;SDS011;62035;52.094;5.112;2022-11-20T02:48:05;15.73;;;8.15;;
62030;SDS011;62035;52.094;5.112;2022-11-20T02:50:36;14.35;;;7.57;;
62030;SDS011;62035;52.094;5.112;2022-11-20T02:53:05;14.45;;;7.45;;
62030;SDS011;62035;52.094;5.112;2022-11-20T02:55:33;15.27;;;7.38;;
62030;SDS011;62035;52.094;5.112;2022-11-20T02:58:03;14.45;;;7.38;;
62030;SDS011;62035;52.094;5.112;2022-11-20T03:00:30;17.05;;;7.93;;
62030;SDS011;62035;52.094;5.112;2022-11-20T03:02:59;18.33;;;9.20;;
62030;SDS011;62035;52.094;5.112;2022-11-20T03:05:26;15.68;;;8.90;;
62030;SDS011;62035;52.094;5.112;2022-11-20T03:07:54;15.30;;;8.43;;
62030;SDS011;62035;52.094;5.112;2022-11-20T03:10:21;16.30;;;8.32;;
62030;SDS011;62035;52.094;5.112;2022-11-20T03:12:52;12.52;;;7.55;;
62030;SDS011;62035;52.094;5.112;2022-11-20T03:15:22;14.95;;;8.30;;
62030;SDS011;62035;52.094;5.112;2022-11-20T03:17:52;20.42;;;8.82;;
62030;SDS011;62035;52.094;5.112;2022-11-20T03:20:21;16.08;;;7.85;;
62030;SDS011;62035;52.094;5.112;2022-11-20T03:22:49;14.27;;;7.70;;
62030;SDS011;62035;52.094;5.112;2022-11-20T03:25:17;14.32;;;7.07;;
62030;SDS011;62035;52.094;5.112;2022-11-20T03:27:44;14.13;;;7.60;;
62030;SDS011;62035;52.094;5.112;2022-11-20T03:30:12;15.93;;;6.82;;
62030;SDS011;62035;52.094;5.112;2022-11-20T03:32:42;13.23;;;6.95;;
62030;SDS011;62035;52.094;5.112;2022-11-20T03:35:10;11.65;;;7.20;;
62030;SDS011;62035;52.094;5.112;2022-11-20T03:37:37;13.73;;;7.32;;
62030;SDS011;62035;52.094;5.112;2022-11-20T03:40:05;11.60;;;6.85;;
62030;SDS011;62035;52.094;5.112;2022-11-20T03:42:34;14.25;;;7.30;;
62030;SDS011;62035;52.094;5.112;2022-11-20T03:45:14;14.98;;;7.05;;
62030;SDS011;62035;52.094;5.112;2022-11-20T03:47:45;15.07;;;6.88;;
62030;SDS011;62035;52.094;5.112;2022-11-20T03:50:13;15.30;;;7.55;;
62030;SDS011;62035;52.094;5.112;2022-11-20T03:52:41;12.77;;;6.55;;
62030;SDS011;62035;52.094;5.112;2022-11-20T03:55:09;13.65;;;6.95;;
62030;SDS011;62035;52.094;5.112;2022-11-20T03:57:36;14.07;;;7.47;;
62030;SDS011;62035;52.094;5.112;2022-11-20T04:00:04;12.65;;;6.88;;
62030;SDS011;62035;52.094;5.112;2022-11-20T04:02:33;15.27;;;7.63;;
62030;SDS011;62035;52.094;5.112;2022-11-20T04:05:02;12.75;;;7.35;;
62030;SDS011;62035;52.094;5.112;2022-11-20T04:07:31;11.43;;;6.85;;
62030;SDS011;62035;52.094;5.112;2022-11-20T04:10:01;13.65;;;7.60;;
62030;SDS011;62035;52.094;5.112;2022-11-20T04:12:31;13.90;;;7.25;;
62030;SDS011;62035;52.094;5.112;2022-11-20T04:15:00;12.70;;;6.45;;
62030;SDS011;62035;52.094;5.112;2022-11-20T04:17:27;14.93;;;7.85;;
62030;SDS011;62035;52.094;5.112;2022-11-20T04:19:55;13.55;;;7.03;;
62030;SDS011;62035;52.094;5.112;2022-11-20T04:22:24;12.50;;;7.15;;
62030;SDS011;62035;52.094;5.112;2022-11-20T04:24:52;20.85;;;6.78;;
62030;SDS011;62035;52.094;5.112;2022-11-20T04:27:19;12.57;;;7.15;;
62030;SDS011;62035;52.094;5.112;2022-11-20T04:29:47;14.95;;;7.53;;
62030;SDS011;62035;52.094;5.112;2022-11-20T04:32:14;13.23;;;7.85;;
62030;SDS011;62035;52.094;5.112;2022-11-20T04:34:42;15.32;;;7.53;;
62030;SDS011;62035;52.094;5.112;2022-11-20T04:37:09;14.57;;;7.90;;
62030;SDS011;62035;52.094;5.112;2022-11-20T04:39:38;14.88;;;7.88;;
62030;SDS011;62035;52.094;5.112;2022-11-20T04:42:07;15.40;;;8.15;;
62030;SDS011;62035;52.094;5.112;2022-11-20T04:44:53;15.52;;;7.60;;
62030;SDS011;62035;52.094;5.112;2022-11-20T04:47:21;15.30;;;7.10;;
62030;SDS011;62035;52.094;5.112;2022-11-20T04:49:48;13.73;;;7.32;;
62030;SDS011;62035;52.094;5.112;2022-11-20T04:52:16;14.00;;;8.03;;
62030;SDS011;62035;52.094;5.112;2022-11-20T04:54:45;12.90;;;7.38;;
62030;SDS011;62035;52.094;5.112;2022-11-20T04:57:13;22.00;;;8.48;;
62030;SDS011;62035;52.094;5.112;2022-11-20T04:59:42;15.23;;;8.23;;
62030;SDS011;62035;52.094;5.112;2022-11-20T05:02:09;13.75;;;7.88;;
62030;SDS011;62035;52.094;5.112;2022-11-20T05:04:37;14.18;;;7.80;;
62030;SDS011;62035;52.094;5.112;2022-11-20T05:07:05;13.13;;;7.85;;
62030;SDS011;62035;52.094;5.112;2022-11-20T05:09:32;15.27;;;7.85;;
62030;SDS011;62035;52.094;5.112;2022-11-20T05:12:01;13.68;;;7.40;;
62030;SDS011;62035;52.094;5.112;2022-11-20T05:14:29;10.90;;;7.00;;
62030;SDS011;62035;52.094;5.112;2022-11-20T05:16:57;13.73;;;7.10;;
62030;SDS011;62035;52.094;5.112;2022-11-20T05:19:24;15.52;;;8.13;;
62030;SDS011;62035;52.094;5.112;2022-11-20T05:21:52;15.73;;;8.07;;
62030;SDS011;62035;52.094;5.112;2022-11-20T05:24:19;16.73;;;7.72;;
62030;SDS011;62035;52.094;5.112;2022-11-20T05:26:47;13.85;;;7.82;;
62030;SDS011;62035;52.094;5.112;2022-11-20T05:29:16;14.50;;;8.20;;
62030;SDS011;62035;52.094;5.112;2022-11-20T05:31:44;13.90;;;7.82;;
62030;SDS011;62035;52.094;5.112;2022-11-20T05:34:11;15.05;;;8.13;;
62030;SDS011;62035;52.094;5.112;2022-11-20T05:36:39;15.35;;;8.00;;
62030;SDS011;62035;52.094;5.112;2022-11-20T05:39:06;13.80;;;7.85;;
62030;SDS011;62035;52.094;5.112;2022-11-20T05:41:34;17.17;;;8.43;;
62030;SDS011;62035;52.094;5.112;2022-11-20T05:44:01;15.75;;;8.77;;
62030;SDS011;62035;52.094;5.112;2022-11-20T05:46:30;17.20;;;7.72;;
62030;SDS011;62035;52.094;5.112;2022-11-20T05:48:58;19.58;;;7.97;;
62030;SDS011;62035;52.094;5.112;2022-11-20T05:51:26;12.88;;;7.45;;
62030;SDS011;62035;52.094;5.112;2022-11-20T05:53:55;20.52;;;8.65;;
62030;SDS011;62035;52.094;5.112;2022-11-20T05:56:24;14.80;;;8.20;;
62030;SDS011;62035;52.094;5.112;2022-11-20T05:58:51;13.95;;;7.57;;
62030;SDS011;62035;52.094;5.112;2022-11-20T06:01:20;16.00;;;8.05;;
62030;SDS011;62035;52.094;5.112;2022-11-20T06:03:51;16.15;;;7.90;;
62030;SDS011;62035;52.094;5.112;2022-11-20T06:06:20;14.20;;;8.27;;
62030;SDS011;62035;52.094;5.112;2022-11-20T06:08:48;15.15;;;7.97;;
62030;SDS011;62035;52.094;5.112;2022-11-20T06:11:16;13.55;;;7.43;;
62030;SDS011;62035;52.094;5.112;2022-11-20T06:13:45;14.52;;;8.27;;
62030;SDS011;62035;52.094;5.112;2022-11-20T06:16:14;14.98;;;8.25;;
62030;SDS011;62035;52.094;5.112;2022-11-20T06:18:45;14.50;;;8.35;;
62030;SDS011;62035;52.094;5.112;2022-11-20T06:21:15;16.98;;;7.95;;
62030;SDS011;62035;52.094;5.112;2022-11-20T06:23:45;15.85;;;8.10;;
62030;SDS011;62035;52.094;5.112;2022-11-20T06:26:14;13.77;;;7.45;;
62030;SDS011;62035;52.094;5.112;2022-11-20T06:28:44;17.92;;;8.30;;
62030;SDS011;62035;52.094;5.112;2022-11-20T06:31:12;17.05;;;8.27;;
62030;SDS011;62035;52.094;5.112;2022-11-20T06:33:42;12.50;;;7.45;;
62030;SDS011;62035;52.094;5.112;2022-11-20T06:36:11;16.15;;;8.93;;
62030;SDS011;62035;52.094;5.112;2022-11-20T06:38:42;13.40;;;7.90;;
62030;SDS011;62035;52.094;5.112;2022-11-20T06:41:11;16.58;;;7.82;;
62030;SDS011;62035;52.094;5.112;2022-11-20T06:43:41;17.23;;;8.73;;
62030;SDS011;62035;52.094;5.112;2022-11-20T06:46:09;18.42;;;8.63;;
62030;SDS011;62035;52.094;5.112;2022-11-20T06:48:38;15.45;;;8.02;;
62030;SDS011;62035;52.094;5.112;2022-11-20T06:51:07;13.38;;;7.95;;
62030;SDS011;62035;52.094;5.112;2022-11-20T06:53:36;17.85;;;9.00;;
62030;SDS011;62035;52.094;5.112;2022-11-20T06:56:06;13.65;;;7.38;;
62030;SDS011;62035;52.094;5.112;2022-11-20T06:58:35;16.33;;;8.73;;
62030;SDS011;62035;52.094;5.112;2022-11-20T07:01:04;15.73;;;8.60;;
62030;SDS011;62035;52.094;5.112;2022-11-20T07:03:34;13.73;;;8.18;;
62030;SDS011;62035;52.094;5.112;2022-11-20T07:06:03;17.50;;;9.02;;
62030;SDS011;62035;52.094;5.112;2022-11-20T07:08:32;15.27;;;8.75;;
62030;SDS011;62035;52.094;5.112;2022-11-20T07:11:02;16.40;;;9.27;;
62030;SDS011;62035;52.094;5.112;2022-11-20T07:13:34;17.67;;;8.25;;
62030;SDS011;62035;52.094;5.112;2022-11-20T07:16:02;14.45;;;8.10;;
62030;SDS011;62035;52.094;5.112;2022-11-20T07:18:32;17.10;;;8.90;;
62030;SDS011;62035;52.094;5.112;2022-11-20T07:21:00;14.20;;;8.18;;
62030;SDS011;62035;52.094;5.112;2022-11-20T07:23:29;16.08;;;8.40;;
62030;SDS011;62035;52.094;5.112;2022-11-20T07:25:56;19.23;;;9.02;;
62030;SDS011;62035;52.094;5.112;2022-11-20T07:28:25;18.60;;;9.57;;
62030;SDS011;62035;52.094;5.112;2022-11-20T07:30:53;16.08;;;8.77;;
62030;SDS011;62035;52.094;5.112;2022-11-20T07:33:21;15.48;;;9.43;;
62030;SDS011;62035;52.094;5.112;2022-11-20T07:35:48;19.05;;;8.82;;
62030;SDS011;62035;52.094;5.112;2022-11-20T07:38:16;16.20;;;8.18;;
62030;SDS011;62035;52.094;5.112;2022-11-20T07:40:43;19.80;;;8.60;;
62030;SDS011;62035;52.094;5.112;2022-11-20T07:43:11;22.23;;;9.20;;
62030;SDS011;62035;52.094;5.112;2022-11-20T07:45:40;16.48;;;8.77;;
62030;SDS011;62035;52.094;5.112;2022-11-20T07:48:07;18.05;;;9.23;;
62030;SDS011;62035;52.094;5.112;2022-11-20T07:50:35;25.73;;;8.98;;
62030;SDS011;62035;52.094;5.112;2022-11-20T07:53:03;17.25;;;9.20;;
62030;SDS011;62035;52.094;5.112;2022-11-20T07:55:32;17.27;;;8.93;;
62030;SDS011;62035;52.094;5.112;2022-11-20T07:58:00;19.80;;;10.27;;
62030;SDS011;62035;52.094;5.112;2022-11-20T08:00:27;17.73;;;9.55;;
62030;SDS011;62035;52.094;5.112;2022-11-20T08:02:56;18.15;;;8.68;;
62030;SDS011;62035;52.094;5.112;2022-11-20T08:05:24;15.98;;;8.65;;
62030;SDS011;62035;52.094;5.112;2022-11-20T08:07:52;19.73;;;8.68;;
62030;SDS011;62035;52.094;5.112;2022-11-20T08:10:19;14.60;;;8.18;;
62030;SDS011;62035;52.094;5.112;2022-11-20T08:12:47;23.60;;;9.35;;
62030;SDS011;62035;52.094;5.112;2022-11-20T08:15:34;14.98;;;8.75;;
62030;SDS011;62035;52.094;5.112;2022-11-20T08:18:04;17.15;;;9.35;;
62030;SDS011;62035;52.094;5.112;2022-11-20T08:20:34;18.45;;;9.40;;
62030;SDS011;62035;52.094;5.112;2022-11-20T08:23:03;16.77;;;8.65;;
62030;SDS011;62035;52.094;5.112;2022-11-20T08:25:33;18.75;;;10.05;;
62030;SDS011;62035;52.094;5.112;2022-11-20T08:28:03;21.27;;;10.23;;
62030;SDS011;62035;52.094;5.112;2022-11-20T08:30:34;15.07;;;8.73;;
62030;SDS011;62035;52.094;5.112;2022-11-20T08:33:04;17.33;;;8.82;;
62030;SDS011;62035;52.094;5.112;2022-11-20T08:35:34;17.92;;;10.38;;
62030;SDS011;62035;52.094;5.112;2022-11-20T08:38:04;17.02;;;9.18;;
62030;SDS011;62035;52.094;5.112;2022-11-20T08:40:32;19.75;;;10.07;;
62030;SDS011;62035;52.094;5.112;2022-11-20T08:43:00;19.73;;;10.20;;
62030;SDS011;62035;52.094;5.112;2022-11-20T08:45:28;15.70;;;9.27;;
62030;SDS011;62035;52.094;5.112;2022-11-20T08:47:59;18.02;;;9.18;;
62030;SDS011;62035;52.094;5.112;2022-11-20T08:50:29;18.23;;;9.57;;
62030;SDS011;62035;52.094;5.112;2022-11-20T08:53:01;16.55;;;8.77;;
62030;SDS011;62035;52.094;5.112;2022-11-20T08:57:57;18.20;;;8.88;;
62030;SDS011;62035;52.094;5.112;2022-11-20T09:00:25;15.23;;;8.70;;
62030;SDS011;62035;52.094;5.112;2022-11-20T09:02:52;18.05;;;9.82;;
62030;SDS011;62035;52.094;5.112;2022-11-20T09:05:20;17.80;;;9.65;;
62030;SDS011;62035;52.094;5.112;2022-11-20T09:07:49;15.15;;;8.82;;
62030;SDS011;62035;52.094;5.112;2022-11-20T09:10:16;17.70;;;9.35;;
62030;SDS011;62035;52.094;5.112;2022-11-20T09:12:44;20.90;;;10.30;;
62030;SDS011;62035;52.094;5.112;2022-11-20T09:15:16;19.90;;;10.38;;
62030;SDS011;62035;52.094;5.112;2022-11-20T09:17:49;24.00;;;10.57;;
62030;SDS011;62035;52.094;5.112;2022-11-20T09:20:18;18.52;;;10.10;;
62030;SDS011;62035;52.094;5.112;2022-11-20T09:22:46;18.95;;;11.02;;
62030;SDS011;62035;52.094;5.112;2022-11-20T09:25:16;19.23;;;10.10;;
62030;SDS011;62035;52.094;5.112;2022-11-20T09:27:43;16.05;;;9.68;;
62030;SDS011;62035;52.094;5.112;2022-11-20T09:30:12;18.30;;;10.32;;
62030;SDS011;62035;52.094;5.112;2022-11-20T09:32:41;17.98;;;10.23;;
62030;SDS011;62035;52.094;5.112;2022-11-20T09:35:09;16.02;;;9.25;;
62030;SDS011;62035;52.094;5.112;2022-11-20T09:37:37;16.98;;;9.73;;
62030;SDS011;62035;52.094;5.112;2022-11-20T09:40:09;18.50;;;10.55;;
62030;SDS011;62035;52.094;5.112;2022-11-20T09:42:47;19.42;;;10.20;;
62030;SDS011;62035;52.094;5.112;2022-11-20T09:45:30;17.95;;;9.55;;
62030;SDS011;62035;52.094;5.112;2022-11-20T09:48:19;22.55;;;10.02;;
62030;SDS011;62035;52.094;5.112;2022-11-20T09:51:05;21.60;;;10.57;;
62030;SDS011;62035;52.094;5.112;2022-11-20T09:53:51;23.75;;;10.40;;
62030;SDS011;62035;52.094;5.112;2022-11-20T09:56:34;21.55;;;10.75;;
62030;SDS011;62035;52.094;5.112;2022-11-20T09:59:08;19.13;;;10.50;;
62030;SDS011;62035;52.094;5.112;2022-11-20T10:01:56;22.38;;;11.18;;
62030;SDS011;62035;52.094;5.112;2022-11-20T10:04:27;20.02;;;10.45;;
62030;SDS011;62035;52.094;5.112;2022-11-20T10:09:31;18.40;;;9.93;;
62030;SDS011;62035;52.094;5.112;2022-11-20T10:12:10;22.92;;;12.15;;
62030;SDS011;62035;52.094;5.112;2022-11-20T10:14:50;21.67;;;10.77;;
62030;SDS011;62035;52.094;5.112;2022-11-20T10:20:39;25.13;;;11.75;;
62030;SDS011;62035;52.094;5.112;2022-11-20T10:26:17;18.02;;;10.27;;
62030;SDS011;62035;52.094;5.112;2022-11-20T10:29:00;18.88;;;11.18;;
62030;SDS011;62035;52.094;5.112;2022-11-20T10:31:39;24.50;;;12.25;;
62030;SDS011;62035;52.094;5.112;2022-11-20T10:34:13;21.20;;;11.80;;
62030;SDS011;62035;52.094;5.112;2022-11-20T10:36:50;24.77;;;12.63;;
62030;SDS011;62035;52.094;5.112;2022-11-20T10:39:26;24.90;;;11.65;;
62030;SDS011;62035;52.094;5.112;2022-11-20T10:42:07;25.48;;;12.00;;
62030;SDS011;62035;52.094;5.112;2022-11-20T10:44:42;20.98;;;11.68;;
62030;SDS011;62035;52.094;5.112;2022-11-20T10:47:29;23.52;;;11.98;;
62030;SDS011;62035;52.094;5.112;2022-11-20T10:50:02;20.90;;;11.43;;
62030;SDS011;62035;52.094;5.112;2022-11-20T10:52:37;25.48;;;12.32;;
62030;SDS011;62035;52.094;5.112;2022-11-20T10:55:23;18.48;;;11.05;;
62030;SDS011;62035;52.094;5.112;2022-11-20T10:58:07;24.67;;;11.95;;
62030;SDS011;62035;52.094;5.112;2022-11-20T11:01:03;22.33;;;12.70;;
62030;SDS011;62035;52.094;5.112;2022-11-20T11:03:32;24.85;;;12.15;;
62030;SDS011;62035;52.094;5.112;2022-11-20T11:06:01;21.63;;;12.35;;
62030;SDS011;62035;52.094;5.112;2022-11-20T11:08:41;22.85;;;12.45;;
62030;SDS011;62035;52.094;5.112;2022-11-20T11:11:18;21.38;;;12.13;;
62030;SDS011;62035;52.094;5.112;2022-11-20T11:13:50;23.30;;;12.88;;
62030;SDS011;62035;52.094;5.112;2022-11-20T11:16:23;24.95;;;13.90;;
62030;SDS011;62035;52.094;5.112;2022-11-20T11:19:03;28.35;;;13.32;;
62030;SDS011;62035;52.094;5.112;2022-11-20T11:21:32;26.98;;;13.05;;
62030;SDS011;62035;52.094;5.112;2022-11-20T11:24:02;24.60;;;12.38;;
62030;SDS011;62035;52.094;5.112;2022-11-20T11:26:31;28.13;;;13.70;;
62030;SDS011;62035;52.094;5.112;2022-11-20T11:28:59;23.77;;;12.43;;
62030;SDS011;62035;52.094;5.112;2022-11-20T11:31:30;31.45;;;15.35;;
62030;SDS011;62035;52.094;5.112;2022-11-20T11:34:04;26.83;;;14.02;;
62030;SDS011;62035;52.094;5.112;2022-11-20T11:36:33;29.45;;;15.43;;
62030;SDS011;62035;52.094;5.112;2022-11-20T11:39:02;34.13;;;15.80;;
62030;SDS011;62035;52.094;5.112;2022-11-20T11:41:38;29.42;;;14.48;;
62030;SDS011;62035;52.094;5.112;2022-11-20T11:44:13;28.92;;;15.20;;
62030;SDS011;62035;52.094;5.112;2022-11-20T11:47:05;29.67;;;15.27;;
62030;SDS011;62035;52.094;5.112;2022-11-20T11:49:45;29.00;;;15.05;;
62030;SDS011;62035;52.094;5.112;2022-11-20T11:52:13;35.95;;;15.45;;
62030;SDS011;62035;52.094;5.112;2022-11-20T11:54:46;38.55;;;16.50;;
62030;SDS011;62035;52.094;5.112;2022-11-20T11:57:23;26.92;;;14.98;;
62030;SDS011;62035;52.094;5.112;2022-11-20T12:00:09;34.03;;;15.88;;
62030;SDS011;62035;52.094;5.112;2022-11-20T12:02:43;37.03;;;15.67;;
62030;SDS011;62035;52.094;5.112;2022-11-20T12:05:28;35.35;;;16.67;;
62030;SDS011;62035;52.094;5.112;2022-11-20T12:08:05;31.80;;;16.67;;
62030;SDS011;62035;52.094;5.112;2022-11-20T12:10:45;30.85;;;15.35;;
62030;SDS011;62035;52.094;5.112;2022-11-20T12:13:26;34.72;;;17.50;;
62030;SDS011;62035;52.094;5.112;2022-11-20T12:16:11;33.72;;;15.85;;
62030;SDS011;62035;52.094;5.112;2022-11-20T12:18:43;37.40;;;16.55;;
62030;SDS011;62035;52.094;5.112;2022-11-20T12:21:17;35.10;;;16.77;;
62030;SDS011;62035;52.094;5.112;2022-11-20T12:24:00;35.65;;;16.25;;
62030;SDS011;62035;52.094;5.112;2022-11-20T12:26:49;35.38;;;16.90;;
62030;SDS011;62035;52.094;5.112;2022-11-20T12:29:39;43.00;;;18.65;;
62030;SDS011;62035;52.094;5.112;2022-11-20T12:32:27;33.85;;;16.02;;
62030;SDS011;62035;52.094;5.112;2022-11-20T12:35:31;38.20;;;17.25;;
62030;SDS011;62035;52.094;5.112;2022-11-20T12:38:18;37.45;;;17.88;;
62030;SDS011;62035;52.094;5.112;2022-11-20T12:41:13;38.63;;;17.48;;
62030;SDS011;62035;52.094;5.112;2022-11-20T12:44:16;36.00;;;18.27;;
62030;SDS011;62035;52.094;5.112;2022-11-20T12:47:24;42.90;;;18.27;;
62030;SDS011;62035;52.094;5.112;2022-11-20T12:50:08;39.85;;;18.65;;
62030;SDS011;62035;52.094;5.112;2022-11-20T12:52:49;34.80;;;16.80;;
62030;SDS011;62035;52.094;5.112;2022-11-20T12:55:28;42.72;;;19.30;;
62030;SDS011;62035;52.094;5.112;2022-11-20T12:58:10;36.53;;;17.30;;
62030;SDS011;62035;52.094;5.112;2022-11-20T13:00:51;39.45;;;18.05;;
62030;SDS011;62035;52.094;5.112;2022-11-20T13:03:41;39.00;;;18.00;;
62030;SDS011;62035;52.094;5.112;2022-11-20T13:06:19;37.90;;;17.48;;
62030;SDS011;62035;52.094;5.112;2022-11-20T13:08:49;41.50;;;17.15;;
62030;SDS011;62035;52.094;5.112;2022-11-20T13:11:24;41.78;;;18.98;;
62030;SDS011;62035;52.094;5.112;2022-11-20T13:14:07;40.58;;;18.02;;
62030;SDS011;62035;52.094;5.112;2022-11-20T13:16:52;38.95;;;18.38;;
62030;SDS011;62035;52.094;5.112;2022-11-20T13:19:27;36.88;;;16.90;;
62030;SDS011;62035;52.094;5.112;2022-11-20T13:21:55;37.90;;;17.98;;
62030;SDS011;62035;52.094;5.112;2022-11-20T13:24:26;39.35;;;18.38;;
62030;SDS011;62035;52.094;5.112;2022-11-20T13:27:00;39.25;;;18.00;;
62030;SDS011;62035;52.094;5.112;2022-11-20T13:29:30;40.50;;;18.33;;
62030;SDS011;62035;52.094;5.112;2022-11-20T13:32:06;45.88;;;18.80;;
62030;SDS011;62035;52.094;5.112;2022-11-20T13:34:50;40.13;;;18.27;;
62030;SDS011;62035;52.094;5.112;2022-11-20T13:37:24;40.53;;;19.10;;
62030;SDS011;62035;52.094;5.112;2022-11-20T13:40:10;38.75;;;18.52;;
62030;SDS011;62035;52.094;5.112;2022-11-20T13:42:51;44.30;;;19.63;;
62030;SDS011;62035;52.094;5.112;2022-11-20T13:45:28;46.42;;;19.15;;
62030;SDS011;62035;52.094;5.112;2022-11-20T13:48:00;45.15;;;18.63;;
62030;SDS011;62035;52.094;5.112;2022-11-20T13:50:43;39.90;;;18.67;;
62030;SDS011;62035;52.094;5.112;2022-11-20T13:53:35;49.95;;;20.92;;
62030;SDS011;62035;52.094;5.112;2022-11-20T13:56:27;47.35;;;19.75;;
62030;SDS011;62035;52.094;5.112;2022-11-20T13:59:16;43.60;;;19.65;;
62030;SDS011;62035;52.094;5.112;2022-11-20T14:02:15;44.05;;;18.67;;
62030;SDS011;62035;52.094;5.112;2022-11-20T14:04:47;45.00;;;19.80;;
62030;SDS011;62035;52.094;5.112;2022-11-20T14:07:18;46.45;;;20.55;;
62030;SDS011;62035;52.094;5.112;2022-11-20T14:09:51;47.45;;;21.70;;
62030;SDS011;62035;52.094;5.112;2022-11-20T14:12:22;47.00;;;21.52;;
62030;SDS011;62035;52.094;5.112;2022-11-20T14:14:55;46.03;;;21.65;;
62030;SDS011;62035;52.094;5.112;2022-11-20T14:17:24;53.65;;;20.73;;
62030;SDS011;62035;52.094;5.112;2022-11-20T14:19:59;48.05;;;21.13;;
62030;SDS011;62035;52.094;5.112;2022-11-20T14:22:31;53.72;;;22.60;;
62030;SDS011;62035;52.094;5.112;2022-11-20T14:25:04;46.08;;;20.60;;
62030;SDS011;62035;52.094;5.112;2022-11-20T14:27:35;49.85;;;21.85;;
62030;SDS011;62035;52.094;5.112;2022-11-20T14:30:06;56.83;;;22.75;;
62030;SDS011;62035;52.094;5.112;2022-11-20T14:32:41;51.28;;;21.83;;
62030;SDS011;62035;52.094;5.112;2022-11-20T14:35:13;46.75;;;20.98;;
62030;SDS011;62035;52.094;5.112;2022-11-20T14:37:48;52.10;;;23.02;;
62030;SDS011;62035;52.094;5.112;2022-11-20T14:40:23;54.70;;;21.48;;
62030;SDS011;62035;52.094;5.112;2022-11-20T14:42:56;46.67;;;20.33;;
62030;SDS011;62035;52.094;5.112;2022-11-20T14:45:25;50.58;;;22.80;;
62030;SDS011;62035;52.094;5.112;2022-11-20T14:47:55;51.75;;;23.10;;
62030;SDS011;62035;52.094;5.112;2022-11-20T14:50:26;54.92;;;22.02;;
62030;SDS011;62035;52.094;5.112;2022-11-20T14:52:56;50.20;;;22.13;;
62030;SDS011;62035;52.094;5.112;2022-11-20T14:55:30;52.35;;;23.45;;
62030;SDS011;62035;52.094;5.112;2022-11-20T14:58:02;60.90;;;23.45;;
62030;SDS011;62035;52.094;5.112;2022-11-20T15:00:33;54.40;;;21.23;;
62030;SDS011;62035;52.094;5.112;2022-11-20T15:03:02;48.15;;;22.10;;
62030;SDS011;62035;52.094;5.112;2022-11-20T15:05:45;55.28;;;23.20;;
62030;SDS011;62035;52.094;5.112;2022-11-20T15:08:16;58.80;;;22.05;;
62030;SDS011;62035;52.094;5.112;2022-11-20T15:10:45;52.60;;;22.33;;
62030;SDS011;62035;52.094;5.112;2022-11-20T15:13:17;51.38;;;22.50;;